Efthymios Karelis

Scout - PAOK
4 Jun 2028
Sonntag
Verarbeitung

Persönlichkeit

Anpassungsfähigkeit (7) Ehrgeiz (11) Kontroverse (16) Loyalität (10) Druck (16) Professionalität (15) Fairness (4) Temperament (17)

Profil

Trainerstil Demokratisch
Lizenz Nationale B
Entschlossenheit 5
Menschenführung 11
Motivation 8
Disziplin 10
Arbeitszufriedenheit
100%
Ermüdung
0%
Rolle Scout
Gehalt 51.4K p/W
Vertrag 14.03.2030

Leistung

Verhalten Gut
Trainingseffektivität
43%
Spielerentwicklung
55%
Verletzungsprävention
45%
Taktische Umsetzung
55%

Letzte Ereignisse

Spieler begutachtet jetzt
Spieler begutachtet jetzt
Spieler begutachtet jetzt
Legte dem Vorstand ein Dossier vor jetzt

Aktuell beobachtet

141
Spieler Verein Status Fähigkeit Vertrauen Beobachtet Zuletzt beobachtet Letzte Stimme
Alfonso Pastor Maritimo Aktiv 115 / 118 40% 2 02.06.2028 -
Simone Kosijer Triestina Aktiv 108 / 112 40% 2 02.06.2028 -
Tobe Leysen Lokeren Aktiv 136 / 128 40% 1 02.06.2028 -
Amir Saipi Ceuta Aktiv 128 / 122 40% 1 02.06.2028 -
Andrey Ivlev Dinamo Moscow Aktiv 110 / 125 40% 1 02.06.2028 -
Ezra Mayers West Ham United Aktiv 133 / 129 40% 1 02.06.2028 -
Danylo Malov Lechia Aktiv 102 / 114 40% 1 01.06.2028 -
Afriyie Sulemana Hasaacas Aktiv 105 / 104 40% 1 01.06.2028 -
Pape Cabral Monaco Aktiv 112 / 114 40% 1 01.06.2028 -
Timur Suleimanov Rostov Aktiv 121 / 113 40% 1 31.01.2028 -
Lorent Tolaj Partizan Aktiv 118 / 115 40% 1 31.01.2028 -
Lucas Ríos Persepolis Aktiv 129 / 110 40% 1 31.01.2028 -
Martim Cunha Porto Aktiv 103 / 112 40% 2 30.01.2028 -
Ethan Nkouka Tours Aktiv 91 / 108 40% 1 30.01.2028 -
Diego León Ferencvaros Aktiv 117 / 133 40% 1 30.01.2028 -
Victor Corona Santos Laguna Aktiv 99 / 118 40% 2 29.01.2028 -
Aleksander Wyganowski Legia Aktiv 100 / 112 40% 1 29.01.2028 -
Gopolang Taunyane Ajax Cape Town Aktiv 98 / 95 40% 1 28.01.2028 -
Facundo Balatti Penarol Aktiv 108 / 120 40% 1 28.01.2028 -
Cheveyo Tsawa Club Brugge Aktiv 131 / 118 40% 2 27.01.2028 -
Miguel Figueiredo Benfica Aktiv 114 / 126 40% 2 27.01.2028 -
Jakub Adkonis Korona Aktiv 99 / 107 40% 1 27.01.2028 -
Elie N'Gatta Sochaux Aktiv 107 / 96 40% 2 25.01.2028 -
Zane Albarus Colchester United Aktiv 107 / 113 40% 1 25.01.2028 -
Theo Corbeanu Toronto FC Aktiv 136 / 126 40% 1 24.01.2028 -
Yannick Geiger BK Hacken Aktiv 98 / 115 40% 1 22.01.2028 -
Jorge Salinas Racing Santander Aktiv 137 / 146 40% 1 22.01.2028 -
Duncan McGuire Houston Dynamo Aktiv 132 / 118 40% 2 21.01.2028 -
Skima Togbe Novi Pazar Aktiv 92 / 100 40% 1 21.01.2028 -
Amine Boukamir Charleroi Aktiv 102 / 103 40% 1 21.01.2028 -
Marcelo Flores Toluca Aktiv 134 / 137 40% 1 21.01.2028 -
André Henrique Mirassol Aktiv 117 / 124 40% 1 19.01.2028 -
Esteban Obregón Montevideo City Torque Aktiv 117 / 114 40% 1 19.01.2028 -
Luciano Jachfe Al Jazira Aktiv 120 / 120 40% 1 01.01.2028 -
Max Weiß Norwich City Aktiv 143 / 142 40% 1 01.01.2028 -
Jefry Zapata Once Caldas Verloren 124 / 115 40% 2 31.08.2027 -
Quinn Sullivan Philadelphia Union Aktiv 132 / 121 40% 1 31.08.2027 -
Ibrahim Bayesh Al Dhafra Aktiv 126 / 131 40% 1 30.08.2027 -
Mateo Zuleta Once Caldas Aktiv 120 / 116 40% 1 30.08.2027 -
Drew Baiera New York City Aktiv 104 / 92 40% 1 26.08.2027 -
Keimer Sandoval Deportivo Cali Aktiv 100 / 104 40% 1 26.08.2027 -
Renato Júnior Al Wasl Aktiv 131 / 130 40% 2 25.08.2027 -
Alexander Aravena Portland Timbers Aktiv 139 / 134 40% 1 24.08.2027 -
Kwadwo Opoku Panetolikos Aktiv 126 / 114 40% 1 24.08.2027 -
Ali Youssef Apollon Aktiv 117 / 117 40% 1 24.08.2027 -
Rio Cardines Crystal Palace Aktiv 99 / 121 40% 1 23.08.2027 -
Lucas Barrientos Los Andes Aktiv 100 / 97 40% 1 23.08.2027 -
Serginho Al Wasl Aktiv 143 / 132 40% 2 22.08.2027 -
Elías Báez Atlanta United FC Aktiv 118 / 120 40% 1 22.08.2027 -
Luciano Cosentino Vegalta Sendai Aktiv 125 / 124 40% 2 18.08.2027 -
Yoram Zague Paris Saint-Germain Aktiv 118 / 127 40% 3 18.08.2027 -
Marios Vichos Levadiakos Aktiv 118 / 118 40% 1 18.08.2027 -
Enzo Cardozo Huracán Aktiv 109 / 116 40% 1 18.08.2027 -
Tomáš Suslov Hellas Verona Aktiv 140 / 127 40% 1 16.08.2027 -
Lucas Cepeda Elche Aktiv 135 / 130 40% 1 16.08.2027 -
Inti Borghetto Patronato Aktiv 90 / 96 40% 1 15.08.2027 -
Patricio Moyano Defensores Aktiv 117 / 123 40% 2 13.08.2027 -
Ahmed Qasem Nashville SC Aktiv 128 / 109 40% 1 13.08.2027 -
Lorenzo Ignacchiti Empoli Aktiv 131 / 135 40% 2 12.08.2027 -
Gastón Verón Espanyol Aktiv 125 / 117 40% 2 12.08.2027 -
Rodrigo Chagas Juventud Aktiv 122 / 120 40% 1 12.08.2027 -
Gerónimo Rivera Al Wahda Aktiv 131 / 125 40% 1 12.08.2027 -
Mbekezeli Mbokazi Chicago Fire Aktiv 130 / 133 40% 2 10.08.2027 -
Máximo Munarriz San Telmo Aktiv 97 / 107 40% 1 10.08.2027 -
Tomy Carbonell Real Sociedad Aktiv 123 / 120 40% 1 10.08.2027 -
Ralph Orquin Urawa Reds Aktiv 129 / 124 40% 1 10.08.2027 -
Tiago Freitas Benfica Aktiv 114 / 119 40% 2 08.08.2027 -
Juan Giménez Athletic Bilbao Aktiv 120 / 122 40% 2 08.08.2027 -
Alex Amorim Genoa Aktiv 128 / 130 40% 2 07.08.2027 -
Axel Tape Bayer Leverkusen Aktiv 129 / 145 40% 2 07.08.2027 -
Mathias Jørgensen Blackburn Rovers Aktiv 120 / 124 40% 1 07.08.2027 -
Jorge Meireles AVS Aktiv 121 / 109 40% 1 07.08.2027 -
Nicolás Andereggen Ethnikos Achnas Aktiv 109 / 128 40% 2 06.08.2027 -
Santiago Apa All Boys Aktiv 112 / 107 40% 2 06.08.2027 -
Fally Mayulu Arouca Aktiv 114 / 120 40% 1 02.08.2027 -
Martín Tejón Maritimo Aktiv 125 / 121 40% 2 01.08.2027 -
Simon Ramabu Polokwane City Aktiv 120 / 116 40% 1 01.08.2027 -
Morgan Manyama Black Aces Aktiv 111 / 128 40% 1 01.08.2027 -
Alejandro Almaraz Oviedo Aktiv 114 / 115 40% 1 31.07.2027 -
Halam Loboa Osasuna Aktiv 117 / 119 40% 1 30.07.2027 -
Rabby Nzingoula West Bromwich Albion Aktiv 119 / 126 40% 1 30.07.2027 -
Mohammad Alsalkhadi Damac Aktiv 118 / 115 40% 2 29.07.2027 -
André Lacximicant Estoril Praia Aktiv 123 / 114 40% 1 27.07.2027 -
Denys Smetana Inhulets Aktiv 95 / 104 40% 3 26.07.2027 -
Christian Saydee Wigan Athletic Aktiv 108 / 114 40% 1 24.07.2027 -
Cristian Barros Cerro Aktiv 104 / 113 40% 1 24.07.2027 -
Gennaro Borrelli Cagliari Aktiv 123 / 128 40% 1 24.07.2027 -
Arjan Malić Sturm Graz Aktiv 114 / 126 40% 3 22.07.2027 -
Dale Taylor Blackpool Aktiv 121 / 111 40% 1 22.07.2027 -
Dylan Gorosito Boca Juniors Aktiv 110 / 119 40% 1 22.07.2027 -
Rajmund Molnár Pogon Aktiv 116 / 117 40% 1 19.07.2027 -
Sascha Britschgi Fiorentina Aktiv 115 / 120 40% 1 18.07.2027 -
Facundo Kruspzky Al Wahda Aktiv 117 / 130 40% 1 17.07.2027 -
Rocco Vata Watford Aktiv 120 / 122 40% 1 17.07.2027 -
Milan Vukotić Partizan Aktiv 134 / 122 40% 1 17.07.2027 -
Eddie Salcedo OFI Aktiv 129 / 124 40% 1 13.07.2027 -
Moses Cobnan Krasnodar Aktiv 123 / 122 40% 2 12.07.2027 -
Filip Kubala Banik Ostrava Aktiv 122 / 119 40% 1 12.07.2027 -
Harley Mills Peterborough United Aktiv 103 / 114 40% 1 10.07.2027 -
Mathis Amougou RC Strasbourg Aktiv 113 / 119 40% 1 10.07.2027 -
Myron van Brederode KV Mechelen Aktiv 114 / 131 40% 2 06.07.2027 -
Bill Antonio KV Mechelen Aktiv 122 / 132 40% 1 06.07.2027 -
Nikita Kokarev Krylya Sovetov Aktiv 119 / 128 40% 2 05.07.2027 -
Andreas Jungdal Westerlo Aktiv 134 / 128 40% 3 05.07.2027 -
Marco Oroná Antofagasta Aktiv 101 / 99 40% 1 04.07.2027 -
Rafik el Arguioui Utrecht Aktiv 102 / 120 40% 1 04.07.2027 -
Sławomir Abramowicz Jagiellonia Aktiv 126 / 133 40% 2 02.07.2027 -
Diego Romero Universitario Aktiv 130 / 133 40% 2 02.07.2027 -
Oleksandr Saputin Zorya Aktiv 123 / 123 40% 1 02.07.2027 -
Matteo Rizzo Campobasso Aktiv 114 / 112 40% 2 01.07.2027 -
Luca Gemello Perugia Aktiv 110 / 122 40% 2 01.07.2027 -
Felipe Scheibig Hatayspor Aktiv 111 / 112 40% 1 01.07.2027 -
Luka Lijeskić Radnicki 1923 Aktiv 117 / 115 40% 1 29.06.2027 -
Relebohile Mofokeng Orlando Pirates Aktiv 120 / 121 40% 1 28.06.2027 -
Adnane Abid Standard Liege Aktiv 115 / 126 40% 1 28.06.2027 -
Jan Koutný Sigma Olomouc Aktiv 112 / 125 40% 4 27.06.2027 -
Strahinja Manojlović Radnicki Nis Aktiv 114 / 113 40% 1 26.06.2027 -
Sebastián Meza Huracán Aktiv 130 / 130 40% 1 25.06.2027 -
Facundo Infante Talleres Aktiv 86 / 95 40% 1 25.06.2027 -
Esteban de Lima Tacuarembo Aktiv 93 / 99 40% 1 25.06.2027 -
Lorougnon Gohi Académico de Viseu Aktiv 109 / 123 40% 2 23.06.2027 -
Gonçalo Nogueira Vitoria Guimaraes Aktiv 117 / 122 40% 1 23.06.2027 -
Romano Floriani Mussolini Avellino Aktiv 123 / 130 40% 1 23.06.2027 -
Daniel Kelly West Ham United Aktiv 113 / 116 40% 1 22.06.2027 -
Marius Courcoul Olympique de Marseille Aktiv 109 / 112 40% 1 18.06.2027 -
Juan Moreno Cerro Largo Aktiv 123 / 121 40% 1 14.06.2027 -
Rodrigo Ramos Moreirense Aktiv 111 / 132 40% 1 12.06.2027 -
Mamadou Coulibaly Al Jazira Aktiv 133 / 125 40% 1 11.06.2027 -
Chris Lokesa Waasland-Beveren Aktiv 114 / 128 40% 1 11.06.2027 -
Joseph Jones Kryvbas Aktiv 98 / 90 40% 1 10.06.2027 -
Diogo Spencer Alverca Aktiv 112 / 120 40% 1 09.06.2027 -
Leo Kokubo Sint-Truiden Aktiv 125 / 106 40% 1 07.06.2027 -
Beau Reus Waasland-Beveren Aktiv 127 / 141 40% 1 06.06.2027 -
Maksim Kireev KV Mechelen Aktiv 123 / 123 40% 1 05.06.2027 -
Thomas Claes Zulte Waregem Aktiv 110 / 117 40% 1 05.06.2027 -
Tobías Cervera SonderjyskE Aktiv 115 / 112 40% 1 03.06.2027 -
Vanja Dragojević Partizan Aktiv 121 / 129 40% 1 03.06.2027 -
Mats Egbring Heerenveen Aktiv 95 / 105 40% 1 03.06.2027 -
Viktor Pekarik FK Senica Aktiv 113 / 129 40% 1 03.06.2027 -
Willy Agada Hapoel Haifa Aktiv 112 / 108 40% 1 01.06.2027 -
Emanuele Pecorino Catanzaro Aktiv 105 / 101 40% 1 01.06.2027 -